Time;durP1;ratioP1;P1;durP2;ratioP2;P2;SDS_P1;SDS_P2;PMS_P1;PMS_P2;Temp;Humidity;BMP_temperature;BMP_pressure;BME280_temperature;BME280_humidity;BME280_pressure;Samples;Min_cycle;Max_cycle;Signal;HPM_P1;HPM_P2
2023/03/15 00:01:20;;;;;;;4.25;1.23;;;2.20;99.90;;;;;;5094995;28;20071;-47
2023/03/15 00:03:46;;;;;;;7.78;1.10;;;2.10;99.90;;;;;;5093571;28;20063;-46
2023/03/15 00:06:12;;;;;;;3.92;0.80;;;2.00;99.90;;;;;;5076784;28;20076;-50
2023/03/15 00:08:38;;;;;;;3.58;0.77;;;2.10;99.90;;;;;;5094587;28;20046;-48
2023/03/15 00:11:04;;;;;;;4.85;1.63;;;1.90;99.90;;;;;;5094392;28;20135;-48
2023/03/15 00:13:31;;;;;;;3.63;0.82;;;2.10;99.90;;;;;;5076311;28;20050;-47
2023/03/15 00:15:59;;;;;;;2.97;0.80;;;2.00;99.90;;;;;;5094829;28;20115;-47
2023/03/15 00:18:25;;;;;;;2.78;0.82;;;2.10;99.90;;;;;;5092842;28;20036;-47
2023/03/15 00:20:51;;;;;;;2.15;0.70;;;2.00;99.90;;;;;;5094508;28;20036;-47
2023/03/15 00:23:17;;;;;;;4.28;0.90;;;2.20;99.90;;;;;;5094380;28;20040;-48
2023/03/15 00:25:44;;;;;;;3.08;0.93;;;2.20;99.90;;;;;;5094265;28;20499;-50
2023/03/15 00:28:10;;;;;;;4.55;1.75;;;2.00;99.90;;;;;;5093929;28;20119;-46
2023/03/15 00:30:35;;;;;;;4.28;0.90;;;2.30;99.90;;;;;;5094011;28;20127;-50
2023/03/15 00:33:04;;;;;;;9.80;1.10;;;2.20;99.90;;;;;;5094332;28;20044;-47
2023/03/15 00:35:30;;;;;;;6.10;0.85;;;2.10;99.90;;;;;;5094135;28;20048;-46
2023/03/15 00:37:56;;;;;;;4.03;0.90;;;2.10;99.90;;;;;;5093994;28;20082;-45
2023/03/15 00:40:23;;;;;;;3.35;0.90;;;1.90;99.90;;;;;;5093949;28;20376;-48
2023/03/15 00:42:49;;;;;;;2.05;0.70;;;1.90;99.90;;;;;;5093792;28;20098;-46
2023/03/15 00:45:17;;;;;;;2.65;0.63;;;1.80;99.90;;;;;;5093703;28;20036;-45
2023/03/15 00:47:42;;;;;;;3.90;0.52;;;2.10;99.90;;;;;;5093757;28;20567;-47
2023/03/15 00:50:09;;;;;;;4.97;0.70;;;1.90;99.90;;;;;;5093673;28;20040;-47
2023/03/15 00:52:35;;;;;;;2.88;0.95;;;2.20;99.90;;;;;;5093635;28;20039;-47
2023/03/15 00:55:02;;;;;;;3.03;0.80;;;2.10;99.90;;;;;;5092199;28;20048;-52
2023/03/15 00:57:28;;;;;;;1.52;0.60;;;2.10;99.90;;;;;;5093664;28;20048;-50
2023/03/15 00:59:53;;;;;;;2.97;0.93;;;2.20;99.90;;;;;;5093612;28;20066;-47
2023/03/15 01:02:22;;;;;;;4.38;1.08;;;2.30;99.90;;;;;;5093538;28;20502;-47
2023/03/15 01:04:50;;;;;;;4.68;1.00;;;2.20;99.90;;;;;;5093445;28;20112;-46
2023/03/15 01:07:16;;;;;;;9.02;1.10;;;2.10;99.90;;;;;;5093423;28;20055;-48
2023/03/15 01:09:43;;;;;;;2.30;0.80;;;2.00;99.90;;;;;;5093413;28;20043;-49
2023/03/15 01:12:09;;;;;;;3.55;0.90;;;2.10;99.90;;;;;;5093080;28;20224;-52
2023/03/15 01:14:36;;;;;;;3.33;0.82;;;2.10;99.90;;;;;;5093237;28;20400;-47
2023/03/15 01:17:02;;;;;;;4.63;0.88;;;2.00;99.90;;;;;;5093451;28;20036;-47
2023/03/15 01:19:28;;;;;;;4.53;1.08;;;2.00;99.90;;;;;;5092881;28;20036;-52
2023/03/15 01:21:53;;;;;;;2.97;0.65;;;1.90;99.90;;;;;;5093142;28;20036;-47
2023/03/15 01:24:19;;;;;;;3.53;0.80;;;1.70;99.90;;;;;;5092976;28;20048;-48
2023/03/15 01:26:45;;;;;;;2.20;0.60;;;1.80;99.90;;;;;;5093042;28;20132;-48
2023/03/15 01:29:12;;;;;;;5.70;0.98;;;2.00;99.90;;;;;;5092784;28;20457;-49
2023/03/15 01:31:38;;;;;;;4.07;0.90;;;1.90;99.90;;;;;;5092712;28;20093;-47
2023/03/15 01:34:03;;;;;;;2.53;0.60;;;1.80;99.90;;;;;;5092940;28;20036;-47
2023/03/15 01:36:29;;;;;;;1.88;0.60;;;1.60;99.90;;;;;;5092812;28;20105;-48
2023/03/15 01:38:55;;;;;;;6.07;0.90;;;1.90;99.90;;;;;;5092663;28;20086;-47
2023/03/15 01:41:23;;;;;;;4.72;0.77;;;1.70;99.90;;;;;;5092394;28;20089;-47
2023/03/15 01:43:49;;;;;;;6.05;0.93;;;1.50;99.90;;;;;;5092989;28;20047;-47
2023/03/15 01:46:34;;;;;;;10.70;1.35;;;1.70;99.90;;;;;;5092635;28;20040;-47
2023/03/15 01:49:16;;;;;;;3.05;0.95;;;1.70;99.90;;;;;;5091019;28;20085;-46
2023/03/15 01:51:45;;;;;;;6.18;0.88;;;1.90;99.90;;;;;;5092488;28;20487;-46
2023/03/15 01:54:16;;;;;;;6.28;0.90;;;2.00;99.90;;;;;;5092476;28;20109;-47
2023/03/15 01:56:52;;;;;;;4.13;0.93;;;1.70;99.90;;;;;;5092369;28;20058;-49
2023/03/15 01:59:27;;;;;;;9.15;1.55;;;1.80;99.90;;;;;;5092539;28;20040;-47
2023/03/15 02:01:54;;;;;;;3.20;0.93;;;1.90;99.90;;;;;;5092457;28;20040;-47
2023/03/15 02:04:28;;;;;;;7.88;1.15;;;1.70;99.90;;;;;;5092365;28;20072;-48
2023/03/15 02:07:00;;;;;;;5.38;1.00;;;2.00;99.90;;;;;;5092121;28;20044;-48
2023/03/15 02:09:40;;;;;;;3.13;0.68;;;1.80;99.90;;;;;;5092389;28;20043;-50
2023/03/15 02:12:07;;;;;;;4.47;0.82;;;1.80;99.90;;;;;;5091971;28;20060;-46
2023/03/15 02:14:34;;;;;;;5.15;0.80;;;1.80;99.90;;;;;;5092016;28;20048;-48
2023/03/15 02:17:00;;;;;;;3.88;0.80;;;2.10;99.90;;;;;;5091966;28;20480;-50
2023/03/15 02:19:54;;;;;;;4.28;0.68;;;1.80;99.90;;;;;;5090861;28;20048;-51
2023/03/15 02:22:45;;;;;;;5.70;0.93;;;2.10;99.90;;;;;;5092028;28;20040;-48
2023/03/15 02:25:29;;;;;;;3.13;0.57;;;2.10;99.90;;;;;;5092028;28;20044;-48
2023/03/15 02:27:56;;;;;;;4.50;0.73;;;2.10;99.90;;;;;;5092317;28;20048;-49
2023/03/15 02:30:22;;;;;;;3.75;0.70;;;2.10;99.90;;;;;;5090745;28;20043;-47
2023/03/15 02:32:48;;;;;;;6.55;0.73;;;1.90;99.90;;;;;;5091966;28;20040;-50
2023/03/15 02:35:27;;;;;;;6.53;1.08;;;1.80;99.90;;;;;;5073710;28;20044;-46
2023/03/15 02:37:53;;;;;;;0.95;0.50;;;1.70;99.90;;;;;;5092318;28;20043;-46
2023/03/15 02:40:21;;;;;;;6.78;0.90;;;1.80;99.90;;;;;;5092304;28;20151;-47
2023/03/15 02:42:54;;;;;;;1.38;0.52;;;1.60;99.90;;;;;;5095994;28;20427;-48
2023/03/15 02:45:21;;;;;;;4.60;0.70;;;1.80;99.90;;;;;;5096115;28;20067;-47
2023/03/15 02:47:48;;;;;;;1.92;0.60;;;1.70;99.90;;;;;;5095872;28;20104;-50
2023/03/15 02:50:14;;;;;;;4.28;0.70;;;1.40;99.90;;;;;;5095794;28;20439;-47
2023/03/15 02:52:40;;;;;;;4.28;0.93;;;1.60;99.90;;;;;;5096243;28;20032;-51
2023/03/15 02:55:06;;;;;;;5.65;0.73;;;1.50;99.90;;;;;;5096140;28;20083;-49
2023/03/15 02:57:32;;;;;;;6.93;0.82;;;1.50;99.90;;;;;;5095799;28;20197;-51
2023/03/15 02:59:59;;;;;;;4.00;0.82;;;1.40;99.90;;;;;;5095813;28;20123;-50
2023/03/15 03:02:25;;;;;;;3.15;0.80;;;1.50;99.90;;;;;;5096119;28;20380;-49
2023/03/15 03:04:51;;;;;;;1.95;0.73;;;1.50;99.90;;;;;;5095414;28;20036;-48
2023/03/15 03:07:18;;;;;;;1.92;0.65;;;1.40;99.90;;;;;;5095840;28;20047;-46
2023/03/15 03:09:43;;;;;;;6.60;1.30;;;1.30;99.90;;;;;;5095744;28;20043;-50
2023/03/15 03:12:09;;;;;;;9.18;1.00;;;1.50;99.90;;;;;;5095334;28;20051;-47
2023/03/15 03:14:35;;;;;;;2.88;0.80;;;1.40;99.90;;;;;;5095734;28;20093;-48
2023/03/15 03:17:00;;;;;;;11.80;1.40;;;1.20;99.90;;;;;;5095227;28;20040;-48
2023/03/15 03:19:26;;;;;;;4.43;1.10;;;1.20;99.90;;;;;;5095374;28;20046;-48
2023/03/15 03:21:53;;;;;;;4.45;0.90;;;1.40;99.90;;;;;;5095599;28;20035;-49
2023/03/15 03:24:19;;;;;;;2.67;0.90;;;1.50;99.90;;;;;;5095437;28;20510;-47
2023/03/15 03:26:45;;;;;;;4.68;1.08;;;1.30;99.90;;;;;;5095345;28;20031;-46
2023/03/15 03:29:15;;;;;;;3.80;0.73;;;1.60;99.90;;;;;;5094163;28;20160;-46
2023/03/15 03:31:42;;;;;;;1.83;0.80;;;1.30;99.90;;;;;;5095097;28;20119;-46
2023/03/15 03:34:14;;;;;;;2.47;0.80;;;1.40;99.90;;;;;;5095395;28;20048;-47
2023/03/15 03:36:40;;;;;;;4.18;0.85;;;1.50;99.90;;;;;;5095002;28;20435;-47
2023/03/15 03:39:06;;;;;;;5.35;0.68;;;1.40;99.90;;;;;;5095134;28;20036;-47
2023/03/15 03:41:31;;;;;;;0.88;0.57;;;1.20;99.90;;;;;;5095021;28;20047;-49
2023/03/15 03:43:57;;;;;;;3.50;0.65;;;1.20;99.90;;;;;;5095101;28;20053;-49
2023/03/15 03:46:23;;;;;;;5.90;0.88;;;1.20;99.90;;;;;;5094885;28;20456;-47
2023/03/15 03:48:48;;;;;;;2.47;0.85;;;0.90;99.90;;;;;;5093981;28;20055;-47
2023/03/15 03:51:14;;;;;;;4.63;0.88;;;1.00;99.90;;;;;;5092957;28;20483;-46
2023/03/15 03:53:40;;;;;;;2.28;0.70;;;0.90;99.90;;;;;;5094966;28;20047;-46
2023/03/15 03:56:06;;;;;;;1.88;0.75;;;0.90;99.90;;;;;;5094762;28;20087;-47
2023/03/15 03:58:32;;;;;;;2.50;0.70;;;0.70;99.90;;;;;;5094617;28;20491;-48
2023/03/15 04:00:58;;;;;;;6.07;0.82;;;0.90;99.90;;;;;;5094583;28;20036;-46
2023/03/15 04:03:26;;;;;;;3.70;0.70;;;0.90;99.90;;;;;;5094505;28;20036;-47
2023/03/15 04:05:59;;;;;;;3.22;0.75;;;0.70;99.90;;;;;;5094756;28;20040;-51
2023/03/15 04:08:25;;;;;;;3.13;0.80;;;0.70;99.90;;;;;;5094435;28;20506;-47
2023/03/15 04:10:52;;;;;;;1.48;0.50;;;0.90;99.90;;;;;;5094223;28;20408;-47
2023/03/15 04:13:21;;;;;;;1.60;0.73;;;0.60;99.90;;;;;;5094874;28;20039;-50
2023/03/15 04:15:47;;;;;;;0.90;0.40;;;0.60;99.90;;;;;;5094658;28;20491;-49
2023/03/15 04:18:14;;;;;;;3.17;0.65;;;0.60;99.90;;;;;;5094302;28;20044;-49
2023/03/15 04:20:45;;;;;;;3.42;0.75;;;0.80;99.90;;;;;;5094119;28;20492;-49
2023/03/15 04:23:13;;;;;;;1.05;0.60;;;0.80;99.90;;;;;;5093973;28;20044;-50
2023/03/15 04:25:38;;;;;;;1.98;0.60;;;0.90;99.90;;;;;;5076335;28;20487;-47
2023/03/15 04:28:04;;;;;;;2.67;0.70;;;0.80;99.90;;;;;;5094078;28;20114;-48
2023/03/15 04:30:30;;;;;;;1.10;0.50;;;0.80;99.90;;;;;;5092863;28;20040;-50
2023/03/15 04:33:02;;;;;;;1.80;0.50;;;0.80;99.90;;;;;;5093930;28;20067;-48
2023/03/15 04:35:29;;;;;;;1.85;0.63;;;0.90;99.90;;;;;;5094164;28;20040;-46
2023/03/15 04:37:58;;;;;;;0.93;0.50;;;0.80;99.90;;;;;;5094033;28;20090;-46
2023/03/15 04:40:28;;;;;;;0.93;0.40;;;0.80;99.90;;;;;;5093694;28;20048;-46
2023/03/15 04:42:54;;;;;;;2.58;0.80;;;0.70;99.90;;;;;;5093834;28;20609;-47
2023/03/15 04:45:22;;;;;;;2.53;0.60;;;0.60;99.90;;;;;;5093930;28;20075;-47
2023/03/15 04:47:49;;;;;;;4.18;0.80;;;0.80;99.90;;;;;;5093896;28;20036;-47
2023/03/15 04:50:15;;;;;;;3.03;0.47;;;0.60;99.90;;;;;;5093174;28;20044;-46
2023/03/15 04:52:41;;;;;;;1.77;0.55;;;0.60;99.90;;;;;;5093577;28;20036;-46
2023/03/15 04:55:07;;;;;;;3.20;0.50;;;0.50;99.90;;;;;;5093181;28;20392;-47
2023/03/15 04:57:33;;;;;;;1.30;0.57;;;0.60;99.90;;;;;;5094040;28;20052;-48
2023/03/15 04:59:59;;;;;;;2.92;0.73;;;0.50;99.90;;;;;;5093536;28;20500;-49
2023/03/15 05:02:24;;;;;;;2.67;0.50;;;0.40;99.90;;;;;;5093554;28;20032;-46
2023/03/15 05:04:50;;;;;;;5.10;0.65;;;0.40;99.90;;;;;;5092809;28;20507;-47
2023/03/15 05:07:16;;;;;;;2.67;0.50;;;0.50;99.90;;;;;;5091908;28;20099;-47
2023/03/15 05:09:45;;;;;;;1.42;0.50;;;0.40;99.90;;;;;;5092086;28;20055;-47
2023/03/15 05:12:11;;;;;;;2.17;0.50;;;0.40;99.90;;;;;;5093122;28;20508;-46
2023/03/15 05:14:37;;;;;;;2.53;0.52;;;0.60;99.90;;;;;;5093405;28;20039;-50
2023/03/15 05:17:03;;;;;;;0.90;0.52;;;0.50;99.90;;;;;;5093026;28;20124;-51
2023/03/15 05:19:33;;;;;;;8.00;1.00;;;0.50;99.90;;;;;;5093197;28;20127;-47
2023/03/15 05:22:02;;;;;;;1.20;0.55;;;0.40;99.90;;;;;;5093150;28;20044;-46
2023/03/15 05:24:28;;;;;;;5.80;1.10;;;0.40;99.90;;;;;;5091662;28;20056;-48
2023/03/15 05:26:54;;;;;;;4.72;0.75;;;0.60;99.90;;;;;;5093302;28;20058;-47
2023/03/15 05:29:21;;;;;;;3.72;0.88;;;0.50;99.90;;;;;;5092944;28;20476;-47
2023/03/15 05:31:47;;;;;;;2.78;0.55;;;0.40;99.90;;;;;;5092834;28;20031;-48
2023/03/15 05:34:13;;;;;;;2.65;0.90;;;0.50;99.90;;;;;;5093168;28;20040;-47
2023/03/15 05:36:40;;;;;;;2.60;0.43;;;0.40;99.90;;;;;;5092533;28;20035;-49
2023/03/15 05:39:07;;;;;;;2.78;0.90;;;0.40;99.90;;;;;;5092771;28;20048;-46
2023/03/15 05:41:33;;;;;;;7.15;1.20;;;0.60;99.90;;;;;;5091571;28;20396;-46
2023/03/15 05:43:59;;;;;;;2.45;1.10;;;0.60;99.90;;;;;;5092788;28;20033;-46
2023/03/15 05:46:24;;;;;;;4.63;1.15;;;0.40;99.90;;;;;;5092702;28;20043;-51
2023/03/15 05:48:50;;;;;;;5.90;1.17;;;0.40;99.90;;;;;;5092476;28;20040;-51
2023/03/15 05:51:16;;;;;;;5.32;0.73;;;0.30;99.90;;;;;;5091515;28;20073;-47
2023/03/15 05:53:41;;;;;;;5.15;0.80;;;0.30;99.90;;;;;;5093003;28;20396;-46
2023/03/15 05:56:08;;;;;;;4.90;0.90;;;0.60;99.90;;;;;;5092747;28;20036;-48
2023/03/15 05:58:33;;;;;;;12.98;1.60;;;0.20;99.90;;;;;;5092335;28;20044;-46
2023/03/15 06:01:00;;;;;;;7.40;1.10;;;0.30;99.90;;;;;;5092540;28;20128;-47
2023/03/15 06:03:26;;;;;;;10.25;1.70;;;0.60;99.90;;;;;;5092260;28;20043;-47
2023/03/15 06:05:52;;;;;;;8.98;1.83;;;0.30;99.90;;;;;;5092373;28;20127;-46
2023/03/15 06:08:18;;;;;;;7.95;1.88;;;0.30;99.90;;;;;;5092028;28;20126;-50
2023/03/15 06:10:44;;;;;;;11.85;2.65;;;0.40;99.90;;;;;;5092222;28;20056;-46
2023/03/15 06:13:09;;;;;;;5.68;1.50;;;0.20;99.90;;;;;;5092477;28;20511;-48
2023/03/15 06:15:35;;;;;;;10.27;2.95;;;0.40;99.90;;;;;;5092127;28;20246;-47
2023/03/15 06:18:01;;;;;;;13.82;5.07;;;0.50;99.90;;;;;;5090891;28;20123;-47
2023/03/15 06:20:26;;;;;;;11.65;3.13;;;0.20;99.90;;;;;;5091790;28;20051;-47
2023/03/15 06:22:52;;;;;;;8.32;3.17;;;0.50;99.90;;;;;;5092184;28;20032;-46
2023/03/15 06:25:18;;;;;;;10.85;3.50;;;0.60;99.90;;;;;;5092233;28;20107;-47
2023/03/15 06:27:44;;;;;;;17.45;3.28;;;0.30;99.90;;;;;;5092043;28;20085;-46
2023/03/15 06:30:10;;;;;;;9.55;1.70;;;0.60;99.90;;;;;;5092075;28;20119;-48
2023/03/15 06:32:36;;;;;;;5.68;1.23;;;0.20;99.90;;;;;;5081223;28;20401;-50
2023/03/15 06:35:03;;;;;;;6.30;1.75;;;0.20;99.90;;;;;;5073859;28;20048;-47
2023/03/15 06:37:29;;;;;;;7.70;1.58;;;0.60;99.90;;;;;;5084687;28;20047;-50
2023/03/15 06:39:55;;;;;;;6.57;1.50;;;0.60;99.90;;;;;;5090132;28;20339;-47
2023/03/15 06:42:21;;;;;;;6.45;1.25;;;0.50;99.90;;;;;;5078664;28;20484;-47
2023/03/15 06:44:47;;;;;;;4.53;1.20;;;0.70;99.90;;;;;;5074704;28;20068;-47
2023/03/15 06:47:12;;;;;;;6.53;1.40;;;0.60;99.90;;;;;;5088979;28;20293;-47
2023/03/15 06:49:38;;;;;;;8.23;2.50;;;0.80;99.90;;;;;;5089815;28;20134;-46
2023/03/15 06:52:05;;;;;;;7.22;1.17;;;0.60;99.90;;;;;;5090313;28;20036;-46
2023/03/15 06:54:30;;;;;;;8.30;1.65;;;1.00;99.90;;;;;;5089180;28;20079;-47
2023/03/15 06:56:57;;;;;;;6.88;1.55;;;0.70;99.90;;;;;;5090290;28;20094;-46
2023/03/15 06:59:22;;;;;;;7.53;1.50;;;0.70;99.90;;;;;;5090109;28;20051;-47
2023/03/15 07:01:48;;;;;;;6.28;1.15;;;0.80;99.90;;;;;;5072274;28;20070;-47
2023/03/15 07:04:14;;;;;;;4.97;1.42;;;0.80;99.90;;;;;;5090099;28;20058;-48
2023/03/15 07:06:40;;;;;;;7.55;2.53;;;0.90;99.90;;;;;;5090302;28;20071;-47
2023/03/15 07:09:06;;;;;;;9.05;1.67;;;1.30;99.90;;;;;;5090203;28;20427;-47
2023/03/15 07:11:32;;;;;;;13.20;1.75;;;1.40;99.90;;;;;;5089787;28;20063;-47
2023/03/15 07:13:58;;;;;;;5.15;1.60;;;1.60;99.90;;;;;;5090090;28;20071;-46
2023/03/15 07:16:24;;;;;;;8.48;1.40;;;1.60;99.90;;;;;;5089744;28;20487;-46
2023/03/15 07:18:52;;;;;;;8.45;1.55;;;1.50;99.90;;;;;;5089870;28;20035;-55
2023/03/15 07:21:18;;;;;;;10.32;2.45;;;1.70;99.90;;;;;;5090247;28;20052;-50
2023/03/15 07:23:43;;;;;;;9.98;1.80;;;1.60;99.90;;;;;;5090045;28;20432;-50
2023/03/15 07:26:09;;;;;;;8.90;1.95;;;1.50;99.90;;;;;;5090153;28;20132;-50
2023/03/15 07:28:35;;;;;;;9.25;1.85;;;1.50;99.90;;;;;;5093836;28;20480;-47
2023/03/15 07:31:02;;;;;;;8.73;1.85;;;1.90;99.90;;;;;;5093663;28;20055;-52
2023/03/15 07:33:30;;;;;;;7.32;1.40;;;2.10;99.90;;;;;;5093664;28;20515;-49
2023/03/15 07:35:55;;;;;;;13.48;3.30;;;2.10;99.90;;;;;;5093592;28;20036;-49
2023/03/15 07:38:23;;;;;;;11.60;2.08;;;2.20;99.90;;;;;;5093455;28;20050;-48
2023/03/15 07:40:49;;;;;;;8.50;1.73;;;2.00;99.90;;;;;;5093330;28;20048;-49
2023/03/15 07:43:14;;;;;;;9.18;2.20;;;2.10;99.90;;;;;;5093620;28;20365;-49
2023/03/15 07:45:41;;;;;;;10.85;2.20;;;2.00;99.90;;;;;;5093185;28;20036;-48
2023/03/15 07:48:07;;;;;;;10.88;1.67;;;2.30;99.90;;;;;;5093297;28;20111;-47
2023/03/15 07:50:32;;;;;;;6.03;1.27;;;2.20;99.90;;;;;;5091603;28;20173;-50
2023/03/15 07:52:58;;;;;;;5.38;1.83;;;2.70;99.90;;;;;;5093356;28;20123;-46
2023/03/15 07:55:24;;;;;;;9.75;2.10;;;2.50;99.90;;;;;;5091841;28;20077;-48
2023/03/15 07:57:51;;;;;;;8.38;2.45;;;2.80;99.90;;;;;;5093229;28;20411;-50
2023/03/15 08:00:17;;;;;;;19.15;2.25;;;2.50;99.90;;;;;;5083493;28;20123;-49
2023/03/15 08:02:43;;;;;;;15.60;3.08;;;2.80;99.90;;;;;;5083476;28;20039;-48
2023/03/15 08:05:09;;;;;;;14.52;3.33;;;3.10;99.90;;;;;;5082185;28;20043;-49
2023/03/15 08:07:36;;;;;;;11.13;1.83;;;2.80;99.90;;;;;;5093248;28;20040;-49
2023/03/15 08:10:04;;;;;;;11.85;2.80;;;3.10;99.90;;;;;;5093039;28;20105;-46
2023/03/15 08:12:30;;;;;;;10.98;2.38;;;3.30;99.90;;;;;;5092864;28;20066;-48
2023/03/15 08:14:56;;;;;;;10.85;1.75;;;3.10;99.90;;;;;;5092681;28;20114;-49
2023/03/15 08:17:21;;;;;;;10.00;1.80;;;3.40;99.90;;;;;;5092576;28;20036;-47
2023/03/15 08:19:47;;;;;;;7.13;1.33;;;3.30;99.90;;;;;;5092698;28;20079;-47
2023/03/15 08:22:13;;;;;;;9.48;1.48;;;3.50;99.90;;;;;;5091255;28;20036;-46
2023/03/15 08:24:38;;;;;;;14.13;2.42;;;3.60;99.90;;;;;;5092465;28;20488;-47
2023/03/15 08:27:04;;;;;;;6.53;1.33;;;3.50;99.90;;;;;;5092562;28;20040;-46
2023/03/15 08:29:30;;;;;;;7.95;1.27;;;3.60;99.90;;;;;;5091498;28;20058;-47
2023/03/15 08:31:56;;;;;;;8.38;2.22;;;3.80;99.90;;;;;;5091559;28;20442;-48
2023/03/15 08:34:23;;;;;;;6.50;1.48;;;3.90;99.90;;;;;;5092013;28;20047;-47
2023/03/15 08:36:48;;;;;;;6.68;1.25;;;3.90;99.90;;;;;;5092155;28;20067;-51
2023/03/15 08:39:14;;;;;;;8.07;1.33;;;4.00;99.90;;;;;;5091126;28;20036;-46
2023/03/15 08:41:40;;;;;;;6.43;1.35;;;4.00;99.90;;;;;;5090285;28;20414;-46
2023/03/15 08:44:06;;;;;;;6.10;1.20;;;4.00;99.90;;;;;;5083024;28;20448;-46
2023/03/15 08:46:32;;;;;;;6.22;1.35;;;4.10;99.90;;;;;;5081278;28;20035;-47
2023/03/15 08:48:58;;;;;;;5.82;1.20;;;4.30;99.90;;;;;;5083560;28;20122;-46
2023/03/15 08:51:25;;;;;;;7.15;1.30;;;4.30;99.90;;;;;;5083419;28;20111;-47
2023/03/15 08:53:52;;;;;;;6.00;1.10;;;4.50;99.90;;;;;;5080734;28;20041;-47
2023/03/15 08:56:18;;;;;;;7.22;1.70;;;4.40;99.90;;;;;;5091953;28;20169;-46
2023/03/15 08:58:44;;;;;;;5.85;1.25;;;4.50;99.90;;;;;;5092052;28;20036;-51
2023/03/15 09:01:14;;;;;;;5.72;1.75;;;4.60;99.90;;;;;;5091649;28;20036;-48
2023/03/15 09:03:44;;;;;;;8.48;1.40;;;4.60;99.90;;;;;;5081609;28;20477;-49
2023/03/15 09:06:10;;;;;;;9.60;1.60;;;4.70;99.90;;;;;;5082482;28;20036;-51
2023/03/15 09:08:35;;;;;;;8.65;1.48;;;4.80;99.90;;;;;;5081141;28;20094;-46
2023/03/15 09:11:01;;;;;;;8.45;1.38;;;4.90;99.90;;;;;;5080806;28;20385;-49
2023/03/15 09:13:28;;;;;;;8.38;1.27;;;4.90;99.90;;;;;;5071479;28;20476;-48
2023/03/15 09:15:55;;;;;;;8.18;1.70;;;5.00;99.90;;;;;;5071470;28;20424;-48
2023/03/15 09:18:21;;;;;;;7.28;1.40;;;5.00;99.90;;;;;;5071553;28;20412;-46
2023/03/15 09:20:47;;;;;;;7.70;1.33;;;5.20;99.90;;;;;;5070006;28;20051;-49
2023/03/15 09:23:13;;;;;;;4.82;1.80;;;5.20;99.90;;;;;;5071269;28;20036;-49
2023/03/15 09:25:39;;;;;;;7.47;1.60;;;5.20;99.90;;;;;;5071190;28;20053;-47
2023/03/15 09:28:07;;;;;;;9.07;1.35;;;5.30;99.90;;;;;;5076515;28;20058;-49
2023/03/15 09:30:34;;;;;;;10.10;1.98;;;5.40;99.90;;;;;;5082071;28;20042;-47
2023/03/15 09:32:59;;;;;;;4.65;1.10;;;5.30;99.90;;;;;;5079219;28;20040;-46
2023/03/15 09:35:25;;;;;;;10.13;1.38;;;5.40;99.90;;;;;;5080475;28;20499;-49
2023/03/15 09:37:51;;;;;;;6.40;1.38;;;5.50;99.90;;;;;;5090889;28;20036;-46
2023/03/15 09:40:20;;;;;;;12.45;1.85;;;5.40;99.90;;;;;;5090896;28;20047;-48
2023/03/15 09:43:05;;;;;;;7.68;1.20;;;5.50;99.90;;;;;;5091929;28;20470;-47
2023/03/15 09:45:36;;;;;;;5.93;1.15;;;5.60;99.90;;;;;;5091098;28;20123;-46
2023/03/15 09:48:08;;;;;;;6.10;1.38;;;5.70;99.90;;;;;;5092723;28;20175;-46
2023/03/15 09:50:48;;;;;;;5.88;1.40;;;5.70;99.90;;;;;;5091117;28;20058;-47
2023/03/15 09:53:17;;;;;;;10.02;1.60;;;5.80;99.90;;;;;;5092431;28;20047;-48
2023/03/15 09:55:47;;;;;;;7.65;1.58;;;5.70;99.90;;;;;;5092602;28;20462;-46
2023/03/15 09:58:31;;;;;;;7.68;1.40;;;5.80;99.90;;;;;;5091141;28;20044;-47
2023/03/15 10:01:06;;;;;;;10.25;1.67;;;5.90;99.90;;;;;;5091181;28;20056;-46
2023/03/15 10:03:52;;;;;;;6.80;1.27;;;6.00;99.90;;;;;;5092324;28;20039;-47
2023/03/15 10:06:25;;;;;;;6.60;1.55;;;5.80;99.90;;;;;;5091257;28;20389;-46
2023/03/15 10:08:56;;;;;;;6.45;1.00;;;5.90;99.90;;;;;;5092271;28;20085;-50
2023/03/15 10:11:35;;;;;;;8.13;1.20;;;6.00;99.90;;;;;;5091925;28;20109;-48
2023/03/15 10:14:28;;;;;;;6.97;1.48;;;6.00;99.90;;;;;;5091971;28;20051;-47
2023/03/15 10:16:54;;;;;;;7.00;1.70;;;6.10;99.90;;;;;;5092360;28;20174;-48
2023/03/15 10:19:44;;;;;;;9.90;2.08;;;6.10;99.90;;;;;;5091900;28;20135;-50
2023/03/15 10:22:13;;;;;;;6.10;1.30;;;6.20;99.90;;;;;;5091897;28;20378;-47
2023/03/15 10:24:58;;;;;;;8.45;1.77;;;6.40;99.90;;;;;;5091913;28;20040;-47
2023/03/15 10:27:39;;;;;;;8.27;1.40;;;6.60;99.90;;;;;;5077681;28;20036;-49
2023/03/15 10:30:33;;;;;;;7.72;1.40;;;6.80;99.90;;;;;;5080931;28;20051;-52
2023/03/15 10:33:15;;;;;;;8.55;1.73;;;6.70;99.90;;;;;;5077894;28;20056;-47
2023/03/15 10:35:43;;;;;;;13.32;1.63;;;6.70;99.90;;;;;;5081799;28;20043;-48
2023/03/15 10:38:17;;;;;;;6.57;1.20;;;6.60;99.90;;;;;;5080642;28;20093;-49
2023/03/15 10:40:45;;;;;;;5.85;1.30;;;6.70;99.90;;;;;;5080055;28;20050;-47
2023/03/15 10:43:17;;;;;;;8.98;1.10;;;6.80;99.90;;;;;;5079878;28;20044;-47
2023/03/15 10:45:47;;;;;;;7.80;1.30;;;6.80;99.90;;;;;;5074877;28;20036;-47
2023/03/15 10:48:13;;;;;;;10.15;1.85;;;6.90;99.90;;;;;;5071490;28;20033;-49
2023/03/15 10:50:39;;;;;;;8.32;1.60;;;6.90;99.90;;;;;;5088997;28;20059;-47
2023/03/15 10:53:10;;;;;;;7.60;1.23;;;6.70;99.90;;;;;;5091642;28;20480;-46
2023/03/15 10:55:42;;;;;;;6.53;1.20;;;6.60;99.90;;;;;;5091756;28;20048;-46
2023/03/15 10:58:30;;;;;;;;;;;6.60;99.90;;;;;;5092522;28;20051;-47
2023/03/15 11:01:08;;;;;;;9.40;1.40;;;6.80;99.90;;;;;;5091339;28;20068;-49
2023/03/15 11:03:36;;;;;;;6.55;1.02;;;6.70;99.90;;;;;;5095872;28;20043;-48
2023/03/15 11:06:16;;;;;;;11.43;2.53;;;6.40;99.90;;;;;;5095422;28;20229;-48
2023/03/15 11:08:42;;;;;;;10.93;2.33;;;6.40;99.90;;;;;;5095890;28;20040;-47
2023/03/15 11:11:09;;;;;;;7.90;1.63;;;6.50;99.90;;;;;;5095477;28;20040;-47
2023/03/15 11:13:38;;;;;;;11.18;1.75;;;6.60;99.90;;;;;;5095543;28;20051;-48
2023/03/15 11:16:12;;;;;;;10.65;1.63;;;6.80;99.90;;;;;;5095581;28;20047;-46
2023/03/15 11:18:56;;;;;;;9.50;1.27;;;6.90;99.90;;;;;;5095422;28;20144;-45
2023/03/15 11:21:27;;;;;;;6.00;1.00;;;7.10;99.90;;;;;;5095315;28;20052;-47
2023/03/15 11:23:54;;;;;;;5.67;1.27;;;7.00;99.90;;;;;;5095540;28;20416;-46
2023/03/15 11:26:23;;;;;;;5.22;1.20;;;6.90;99.90;;;;;;5094109;28;20305;-46
2023/03/15 11:28:58;;;;;;;6.35;1.52;;;7.00;99.90;;;;;;5095231;28;20055;-48
2023/03/15 11:31:27;;;;;;;6.72;1.17;;;7.10;99.90;;;;;;5095193;28;20069;-47
2023/03/15 11:33:58;;;;;;;9.13;1.50;;;7.10;99.90;;;;;;5095103;28;20510;-46
2023/03/15 11:36:29;;;;;;;7.60;1.23;;;7.30;99.90;;;;;;5095303;28;20071;-47
2023/03/15 11:38:55;;;;;;;10.70;1.63;;;7.20;99.90;;;;;;5094809;28;20483;-48
2023/03/15 11:41:41;;;;;;;6.38;1.67;;;7.20;99.90;;;;;;5093562;28;20523;-48
2023/03/15 11:44:38;;;;;;;7.40;1.42;;;7.30;99.90;;;;;;5095014;28;20093;-47
2023/03/15 11:47:11;;;;;;;11.00;1.60;;;7.40;99.90;;;;;;5089530;28;20119;-46
2023/03/15 11:50:03;;;;;;;7.03;1.75;;;7.40;99.90;;;;;;5087852;28;20383;-48
2023/03/15 11:52:29;;;;;;;5.55;1.40;;;7.30;99.90;;;;;;5082170;28;20423;-48
2023/03/15 11:55:00;;;;;;;7.90;1.30;;;7.30;99.90;;;;;;5074246;28;20044;-48
2023/03/15 11:57:45;;;;;;;7.33;1.30;;;7.40;99.90;;;;;;5074041;28;20044;-49
2023/03/15 12:00:44;;;;;;;8.10;1.85;;;7.40;99.90;;;;;;5072751;28;20041;-50
2023/03/15 12:03:39;;;;;;;3.42;1.00;;;7.60;99.90;;;;;;5077992;28;20056;-47
2023/03/15 12:06:08;;;;;;;5.07;1.58;;;7.50;99.90;;;;;;5081795;28;20396;-50
2023/03/15 12:08:51;;;;;;;6.82;1.30;;;7.50;99.90;;;;;;5081343;28;20365;-46
2023/03/15 12:11:20;;;;;;;5.57;1.10;;;7.70;99.90;;;;;;5084583;28;20067;-50
2023/03/15 12:13:52;;;;;;;7.03;1.30;;;7.60;99.90;;;;;;5082875;28;20044;-48
2023/03/15 12:16:23;;;;;;;4.85;1.15;;;7.70;99.90;;;;;;5082618;28;20044;-51
2023/03/15 12:18:49;;;;;;;7.57;1.63;;;7.70;99.90;;;;;;5083414;28;20028;-46
2023/03/15 12:21:20;;;;;;;7.97;1.42;;;7.50;99.90;;;;;;5083091;28;20113;-48
2023/03/15 12:24:02;;;;;;;5.43;1.40;;;7.40;99.90;;;;;;5082872;28;20036;-46
2023/03/15 12:26:40;;;;;;;5.10;1.20;;;7.40;99.90;;;;;;5083148;28;20472;-47
2023/03/15 12:29:17;;;;;;;7.22;1.10;;;7.60;99.90;;;;;;5083750;28;20048;-47
2023/03/15 12:31:45;;;;;;;7.20;1.45;;;7.70;99.90;;;;;;5083637;28;20058;-47
2023/03/15 12:34:22;;;;;;;8.63;1.40;;;7.80;99.90;;;;;;5082437;28;20036;-47
2023/03/15 12:36:52;;;;;;;9.68;1.60;;;7.80;99.90;;;;;;5082808;28;20036;-47
2023/03/15 12:39:20;;;;;;;5.15;1.60;;;7.80;99.90;;;;;;5082734;28;20492;-47
2023/03/15 12:41:50;;;;;;;9.00;1.25;;;7.70;99.90;;;;;;5081486;28;20272;-46
2023/03/15 12:44:26;;;;;;;6.70;1.25;;;7.80;99.90;;;;;;5083348;28;20110;-50
2023/03/15 12:46:54;;;;;;;9.10;1.20;;;7.70;99.90;;;;;;5091040;28;20040;-48
2023/03/15 12:49:23;;;;;;;9.88;1.20;;;7.60;99.90;;;;;;5086483;28;20507;-47
2023/03/15 12:52:09;;;;;;;7.13;2.95;;;7.70;99.90;;;;;;5082791;28;20051;-48
2023/03/15 12:54:57;;;;;;;5.03;1.25;;;8.00;99.90;;;;;;5081097;28;20134;-45
2023/03/15 12:57:29;;;;;;;5.45;1.58;;;8.00;99.90;;;;;;5082508;28;20037;-46
2023/03/15 13:00:05;;;;;;;6.68;1.25;;;7.90;99.90;;;;;;5080004;28;20045;-48
2023/03/15 13:02:36;;;;;;;7.07;1.20;;;8.00;99.90;;;;;;5082040;28;20093;-48
2023/03/15 13:05:08;;;;;;;6.47;2.08;;;7.90;99.90;;;;;;5082402;28;20402;-48